Terminal Aerodrome Forecast
Issued by NWS Green Bay, WI

Home | Current Version | Previous Version | Graphics & Text | Print | Product List | Glossary On
Versions: 1 2 3 4 5 6 7 8 9 10 11 12 13 14 15 16 17 18 19 20 21 22 23 24 25 26 27
000
FTUS43 KGRB 192336
TAFGRB
TAF
KGRB 192336Z 2000/2024 18002KT 1/2SM FG OVC002
     FM200800 VRB03KT 3/4SM -RA BR OVC002
      TEMPO 2008/2012 1/2SM -FZRA OVC002
     FM201200 06003KT 1SM -RA BR OVC004
     FM201700 07006KT 3SM BR SCT004 OVC030=

USA.gov is the U.S. government's official web portal to all federal, state and local government web resources and services.